Neenah, Wisconsin
Current Conditions -  °F | °C
As of 3:45 PM on Monday 22 Dec 2014 (Local Time) from KATW Reporting Station
Haze Haze  
Wind Chill: -2°   Ceiling: 1000
Heat Index:   Visibility: 3mi
Dew Point: -1°   Wind: 9mph
Humidity: 81%   Direction: 100°E
Pressure: 29.77"   Gusts: NA
Location:  44.19°N, 88.46°W
Report Text: KATW 222145Z 10008KT 3SM BR OVC010 02/M01 A2977
Loading
Personal Weather Stations






























Interactive Weather Map New forecast layout! Learn more

10-Day Weather Forecast

Advertisements
Track Severe Weather on mobile